createdAt,value
2019-01-18T00:01:00.558Z,101211.75
2019-01-18T00:03:30.191Z,101214.09
2019-01-18T00:06:00.393Z,101215.48
2019-01-18T00:08:30.011Z,101218.45
2019-01-18T00:11:00.117Z,101219.13
2019-01-18T00:13:30.274Z,101224.80
2019-01-18T00:16:00.151Z,101221.51
2019-01-18T00:18:30.426Z,101224.77
2019-01-18T00:21:00.395Z,101235.64
2019-01-18T00:23:30.714Z,101230.44
2019-01-18T00:26:00.664Z,101226.84
2019-01-18T00:28:30.872Z,101234.27
2019-01-18T00:31:00.864Z,101243.06
2019-01-18T00:33:30.957Z,101240.39
2019-01-18T00:36:00.196Z,101249.75
2019-01-18T00:38:29.787Z,101250.25
2019-01-18T00:40:59.305Z,101251.81
2019-01-18T00:43:29.405Z,101255.05
2019-01-18T00:45:59.394Z,101261.85
2019-01-18T00:48:28.828Z,101262.90
2019-01-18T00:50:58.959Z,101274.23
2019-01-18T00:53:29.310Z,101271.24
2019-01-18T00:55:59.703Z,101281.66
2019-01-18T00:58:29.981Z,101279.12
2019-01-18T01:01:00.543Z,101282.47
2019-01-18T01:03:30.934Z,101287.59
2019-01-18T01:06:01.026Z,101295.70
2019-01-18T01:08:31.549Z,101295.66
2019-01-18T01:11:01.999Z,101304.69
2019-01-18T01:13:32.828Z,101304.66
2019-01-18T01:16:03.155Z,101303.51
2019-01-18T01:18:33.314Z,101309.69
2019-01-18T01:21:03.394Z,101313.14
2019-01-18T01:23:33.908Z,101312.69
2019-01-18T01:26:04.187Z,101311.23
2019-01-18T01:28:34.266Z,101321.52
2019-01-18T01:31:05.456Z,101321.11
2019-01-18T01:33:35.071Z,101331.07
2019-01-18T01:36:05.181Z,101339.09
2019-01-18T01:38:35.554Z,101342.23
2019-01-18T01:41:05.631Z,101335.81
2019-01-18T01:43:36.032Z,101342.56
2019-01-18T01:46:06.470Z,101345.23
2019-01-18T01:48:36.499Z,101350.00
2019-01-18T01:51:06.837Z,101350.36
2019-01-18T01:53:36.987Z,101360.34
2019-01-18T01:56:07.073Z,101364.60
2019-01-18T01:58:37.187Z,101369.28
2019-01-18T02:01:07.317Z,101379.97
2019-01-18T02:03:37.431Z,101372.69
2019-01-18T02:06:07.670Z,101380.84
2019-01-18T02:08:38.115Z,101380.98
2019-01-18T02:11:08.187Z,101393.32
2019-01-18T02:13:38.311Z,101388.32
2019-01-18T02:16:08.426Z,101398.44
2019-01-18T02:18:38.558Z,101400.83
2019-01-18T02:21:08.871Z,101409.06
2019-01-18T02:23:39.031Z,101408.72
2019-01-18T02:26:09.190Z,101416.13
2019-01-18T02:28:39.067Z,101426.92
2019-01-18T02:31:09.203Z,101431.13
2019-01-18T02:33:39.698Z,101436.72
2019-01-18T02:36:10.266Z,101439.63
2019-01-18T02:38:41.011Z,101438.92
2019-01-18T02:41:10.669Z,101449.55
2019-01-18T02:43:40.563Z,101450.11
2019-01-18T02:46:10.966Z,101460.12
2019-01-18T02:48:41.123Z,101459.86
2019-01-18T02:51:11.547Z,101465.84
2019-01-18T02:53:42.108Z,101467.73
2019-01-18T02:56:12.511Z,101472.51
2019-01-18T02:58:42.583Z,101477.06
2019-01-18T03:01:12.710Z,101473.82
2019-01-18T03:03:42.952Z,101477.27
2019-01-18T03:06:13.151Z,101472.50
2019-01-18T03:08:43.548Z,101477.08
2019-01-18T03:11:14.304Z,101480.75
2019-01-18T03:13:44.103Z,101481.91
2019-01-18T03:16:14.454Z,101481.69
2019-01-18T03:18:45.152Z,101488.14
2019-01-18T03:21:15.226Z,101491.51
2019-01-18T03:23:45.334Z,101491.14
2019-01-18T03:26:15.442Z,101493.92
2019-01-18T03:28:45.501Z,101486.95
2019-01-18T03:31:15.561Z,101492.02
2019-01-18T03:33:46.193Z,101491.68
2019-01-18T03:36:16.746Z,101499.44
2019-01-18T03:38:46.847Z,101492.13
2019-01-18T03:41:16.826Z,101488.98
2019-01-18T03:43:46.667Z,101489.89
2019-01-18T03:46:16.818Z,101486.02
2019-01-18T03:48:47.432Z,101487.07
2019-01-18T03:51:17.554Z,101478.59
2019-01-18T03:53:47.670Z,101479.52
2019-01-18T03:56:17.993Z,101483.84
2019-01-18T03:58:48.408Z,101484.17
2019-01-18T04:01:18.433Z,101481.41
2019-01-18T04:03:48.856Z,101482.78
2019-01-18T04:06:18.587Z,101481.55
2019-01-18T04:08:48.991Z,101479.10
2019-01-18T04:11:19.693Z,101487.46
2019-01-18T04:13:50.196Z,101483.42
2019-01-18T04:16:20.386Z,101487.01
2019-01-18T04:18:50.610Z,101481.98
2019-01-18T04:21:20.723Z,101481.81
2019-01-18T04:23:50.863Z,101474.17
2019-01-18T04:26:21.410Z,101478.86
2019-01-18T04:28:52.022Z,101479.53
2019-01-18T04:31:22.216Z,101474.17
2019-01-18T04:33:52.467Z,101465.91
2019-01-18T04:36:22.785Z,101463.31
2019-01-18T04:38:53.441Z,101461.64
2019-01-18T04:41:23.866Z,101466.12
2019-01-18T04:43:54.038Z,101460.61
2019-01-18T04:46:23.852Z,101453.12
2019-01-18T04:48:54.228Z,101453.52
2019-01-18T04:51:24.684Z,101448.31
2019-01-18T04:53:54.645Z,101447.23
2019-01-18T04:56:25.296Z,101442.88
2019-01-18T04:58:55.097Z,101431.91
2019-01-18T05:01:25.185Z,101433.50
2019-01-18T05:03:54.990Z,101441.00
2019-01-18T05:06:25.021Z,101430.35
2019-01-18T05:08:55.420Z,101426.23
2019-01-18T05:11:25.492Z,101429.06
2019-01-18T05:13:55.665Z,101423.56
2019-01-18T05:16:25.690Z,101417.91
2019-01-18T05:18:55.734Z,101418.20
2019-01-18T05:21:25.846Z,101411.03
2019-01-18T05:23:55.944Z,101403.19
2019-01-18T05:26:26.092Z,101408.08
2019-01-18T05:28:56.707Z,101402.86
2019-01-18T05:31:27.059Z,101394.14
2019-01-18T05:33:56.939Z,101387.89
2019-01-18T05:36:27.277Z,101382.87
2019-01-18T05:38:57.649Z,101380.17
2019-01-18T05:41:27.698Z,101377.91
2019-01-18T05:43:57.849Z,101372.84
2019-01-18T05:46:27.831Z,101367.97
2019-01-18T05:48:57.960Z,101365.91
2019-01-18T05:51:28.322Z,101361.91
2019-01-18T05:53:58.403Z,101354.60
2019-01-18T05:56:28.802Z,101355.38
2019-01-18T05:58:59.252Z,101344.64
2019-01-18T06:01:29.776Z,101339.40
2019-01-18T06:04:00.000Z,101336.27
2019-01-18T06:06:30.120Z,101338.08
2019-01-18T06:09:00.481Z,101330.91
2019-01-18T06:11:30.574Z,101328.52
2019-01-18T06:14:00.831Z,101324.79
2019-01-18T06:16:31.409Z,101313.04
2019-01-18T06:19:01.378Z,101310.88
2019-01-18T06:21:31.543Z,101303.62
2019-01-18T06:24:01.627Z,101301.42
2019-01-18T06:26:31.678Z,101293.19
2019-01-18T06:29:01.582Z,101286.81
2019-01-18T06:31:31.734Z,101283.09
2019-01-18T06:34:02.256Z,101275.44
2019-01-18T06:36:32.324Z,101264.05
2019-01-18T06:39:02.723Z,101262.36
2019-01-18T06:41:32.816Z,101255.36
2019-01-18T06:44:02.919Z,101251.50
2019-01-18T06:46:33.293Z,101250.48
2019-01-18T06:49:03.497Z,101245.44
2019-01-18T06:51:33.766Z,101240.28
2019-01-18T06:54:04.227Z,101229.27
2019-01-18T06:56:34.232Z,101228.13
2019-01-18T06:59:04.334Z,101218.83
2019-01-18T07:01:34.739Z,101213.44
2019-01-18T07:04:04.833Z,101201.80
2019-01-18T07:06:34.919Z,101196.26
2019-01-18T07:09:04.936Z,101193.55
2019-01-18T07:11:35.078Z,101187.80
2019-01-18T07:14:05.625Z,101177.17
2019-01-18T07:16:36.197Z,101179.55
2019-01-18T07:19:06.067Z,101174.39
2019-01-18T07:21:36.359Z,101165.22
2019-01-18T07:24:06.222Z,101165.41
2019-01-18T07:26:37.034Z,101158.62
2019-01-18T07:29:07.333Z,101153.52
2019-01-18T07:31:37.600Z,101146.38
2019-01-18T07:34:07.841Z,101143.91
2019-01-18T07:36:38.424Z,101139.03
2019-01-18T07:39:08.980Z,101129.00
2019-01-18T07:41:38.939Z,101131.89
2019-01-18T07:44:09.055Z,101130.78
2019-01-18T07:46:39.077Z,101125.62
2019-01-18T07:49:09.816Z,101122.83
2019-01-18T07:51:40.042Z,101115.31
2019-01-18T07:54:10.363Z,101109.38
2019-01-18T07:56:40.379Z,101110.56
2019-01-18T07:59:10.397Z,101108.64
2019-01-18T08:01:40.691Z,101106.19
2019-01-18T08:04:11.228Z,101102.30
2019-01-18T08:06:41.641Z,101098.92
2019-01-18T08:09:12.042Z,101094.13
2019-01-18T08:11:42.088Z,101092.83
2019-01-18T08:14:11.910Z,101092.44
2019-01-18T08:16:43.574Z,101088.73
2019-01-18T08:19:13.288Z,101091.70
2019-01-18T08:21:43.407Z,101087.41
2019-01-18T08:24:13.446Z,101090.98
2019-01-18T08:26:43.657Z,101085.44
2019-01-18T08:29:14.203Z,101082.70
2019-01-18T08:31:44.084Z,101081.42
2019-01-18T08:34:14.232Z,101077.84
2019-01-18T08:36:44.513Z,101080.72
2019-01-18T08:39:14.580Z,101076.66
2019-01-18T08:41:44.681Z,101073.53
2019-01-18T08:44:14.435Z,101069.23
2019-01-18T08:46:44.637Z,101063.73
2019-01-18T08:49:15.037Z,101060.09
2019-01-18T08:51:45.324Z,101057.06
2019-01-18T08:54:15.400Z,101058.55
2019-01-18T08:56:45.370Z,101048.13
2019-01-18T08:59:15.286Z,101040.75
2019-01-18T09:01:45.248Z,101040.05
2019-01-18T09:04:15.640Z,101037.92
2019-01-18T09:06:45.781Z,101042.64
2019-01-18T09:09:15.889Z,101038.79
2019-01-18T09:11:46.126Z,101042.36
2019-01-18T09:14:19.404Z,101039.18
2019-01-18T09:16:46.725Z,101038.13
2019-01-18T09:19:16.810Z,101040.13
2019-01-18T09:21:46.597Z,101033.52
2019-01-18T09:24:16.987Z,101032.10
2019-01-18T09:26:47.546Z,101029.66
2019-01-18T09:29:17.756Z,101034.02
2019-01-18T09:31:47.686Z,101031.50
2019-01-18T09:34:17.882Z,101032.34
2019-01-18T09:36:47.620Z,101026.86
2019-01-18T09:39:17.527Z,101035.28
2019-01-18T09:41:47.449Z,101034.45
2019-01-18T09:44:17.456Z,101034.30
2019-01-18T09:46:47.499Z,101036.51
2019-01-18T09:49:17.470Z,101025.42
2019-01-18T09:51:47.626Z,101026.09
2019-01-18T09:54:17.623Z,101025.89
2019-01-18T09:56:47.313Z,101034.21
2019-01-18T09:59:17.660Z,101038.49
2019-01-18T10:01:49.499Z,101037.30
2019-01-18T10:04:18.500Z,101036.42
2019-01-18T10:06:48.984Z,101036.98
2019-01-18T10:09:19.153Z,101038.66
2019-01-18T10:11:49.109Z,101041.33
2019-01-18T10:14:18.953Z,101039.96
2019-01-18T10:16:48.886Z,101042.64
2019-01-18T10:19:18.400Z,101039.36
2019-01-18T10:21:48.475Z,101037.94
2019-01-18T10:24:18.633Z,101036.42
2019-01-18T10:26:48.436Z,101041.79
2019-01-18T10:29:18.423Z,101030.09
2019-01-18T10:31:48.588Z,101024.47
2019-01-18T10:34:18.506Z,101034.63
2019-01-18T10:36:48.747Z,101038.50
2019-01-18T10:39:18.894Z,101040.47
2019-01-18T10:41:48.794Z,101042.27
2019-01-18T10:44:18.827Z,101044.78
2019-01-18T10:46:49.122Z,101043.98
2019-01-18T10:49:19.817Z,101039.30
2019-01-18T10:51:51.076Z,101045.39
2019-01-18T10:54:21.007Z,101040.98
2019-01-18T10:56:51.213Z,101040.08
2019-01-18T10:59:20.862Z,101039.34
2019-01-18T11:01:50.570Z,101041.20
2019-01-18T11:04:20.673Z,101040.23
2019-01-18T11:06:50.984Z,101040.42
2019-01-18T11:09:21.315Z,101037.78
2019-01-18T11:11:51.241Z,101044.41
2019-01-18T11:14:21.546Z,101041.39
2019-01-18T11:16:51.263Z,101042.67
2019-01-18T11:19:21.632Z,101048.94
2019-01-18T11:21:51.456Z,101043.05
2019-01-18T11:24:21.429Z,101042.61
2019-01-18T11:26:51.949Z,101049.64
2019-01-18T11:29:22.028Z,101048.20
2019-01-18T11:31:51.999Z,101053.52
2019-01-18T11:34:21.892Z,101055.89
2019-01-18T11:36:56.410Z,101055.55
2019-01-18T11:39:22.855Z,101055.94
2019-01-18T11:41:52.881Z,101056.67
2019-01-18T11:44:22.903Z,101050.89
2019-01-18T11:46:52.990Z,101054.50
2019-01-18T11:49:23.028Z,101051.21
2019-01-18T11:51:52.852Z,101054.22
2019-01-18T11:54:23.130Z,101062.66
2019-01-18T11:56:52.673Z,101065.57
2019-01-18T11:59:22.969Z,101062.66
2019-01-18T12:01:53.111Z,101066.58
2019-01-18T12:04:23.220Z,101068.48
2019-01-18T12:06:53.195Z,101072.07
2019-01-18T12:09:23.355Z,101074.55
2019-01-18T12:11:53.470Z,101073.23
2019-01-18T12:14:23.334Z,101078.81
2019-01-18T12:16:53.553Z,101083.22
2019-01-18T12:19:23.461Z,101081.73
2019-01-18T12:21:53.669Z,101080.76
2019-01-18T12:24:23.883Z,101091.39
2019-01-18T12:26:54.171Z,101088.80
2019-01-18T12:29:24.625Z,101098.09
2019-01-18T12:31:54.452Z,101098.53
2019-01-18T12:34:24.793Z,101100.36
2019-01-18T12:36:58.969Z,101100.06
2019-01-18T12:39:25.644Z,101097.48
2019-01-18T12:41:56.027Z,101104.06
2019-01-18T12:44:26.109Z,101105.02
2019-01-18T12:46:56.334Z,101109.69
2019-01-18T12:49:26.210Z,101111.64
2019-01-18T12:51:55.949Z,101115.05
2019-01-18T12:54:25.942Z,101116.64
2019-01-18T12:56:55.811Z,101121.92
2019-01-18T12:59:25.977Z,101120.13
2019-01-18T13:01:55.711Z,101122.06
2019-01-18T13:04:25.682Z,101130.20
2019-01-18T13:06:55.794Z,101134.41
2019-01-18T13:09:25.839Z,101138.00
2019-01-18T13:11:55.965Z,101134.66
2019-01-18T13:14:25.935Z,101137.77
2019-01-18T13:16:56.015Z,101147.69
2019-01-18T13:19:26.118Z,101148.17
2019-01-18T13:21:56.318Z,101148.38
2019-01-18T13:24:26.591Z,101147.05
2019-01-18T13:26:56.171Z,101156.51
2019-01-18T13:29:26.461Z,101162.10
2019-01-18T13:31:56.822Z,101158.50
2019-01-18T13:34:26.811Z,101162.06
2019-01-18T13:36:56.644Z,101159.64
2019-01-18T13:39:27.135Z,101165.59
2019-01-18T13:41:57.441Z,101168.55
2019-01-18T13:44:27.385Z,101178.59
2019-01-18T13:46:57.398Z,101176.98
2019-01-18T13:49:27.741Z,101176.95
2019-01-18T13:51:58.201Z,101182.73
2019-01-18T13:54:28.155Z,101181.39
2019-01-18T13:56:57.839Z,101184.45
2019-01-18T13:59:28.318Z,101191.82
2019-01-18T14:01:58.205Z,101197.16
2019-01-18T14:04:28.216Z,101196.52
2019-01-18T14:06:58.272Z,101204.47
2019-01-18T14:09:28.456Z,101200.84
2019-01-18T14:11:58.227Z,101202.44
2019-01-18T14:14:28.196Z,101212.10
2019-01-18T14:16:58.515Z,101209.31
2019-01-18T14:19:29.000Z,101210.47
2019-01-18T14:21:59.257Z,101210.11
2019-01-18T14:24:29.177Z,101217.26
2019-01-18T14:26:58.982Z,101216.06
2019-01-18T14:29:29.008Z,101215.83
2019-01-18T14:31:59.061Z,101218.69
2019-01-18T14:34:29.165Z,101219.47
2019-01-18T14:36:59.263Z,101221.03
2019-01-18T14:39:29.276Z,101217.98
2019-01-18T14:41:59.377Z,101225.39
2019-01-18T14:44:29.523Z,101225.73
2019-01-18T14:46:59.335Z,101228.30
2019-01-18T14:49:32.574Z,101232.83
2019-01-18T14:52:00.377Z,101235.17
2019-01-18T14:54:30.306Z,101239.58
2019-01-18T14:57:00.226Z,101248.41
2019-01-18T14:59:30.290Z,101247.68
2019-01-18T15:02:00.203Z,101260.37
2019-01-18T15:04:30.582Z,101255.97
2019-01-18T15:07:00.447Z,101256.27
2019-01-18T15:09:30.462Z,101260.94
2019-01-18T15:12:00.427Z,101259.02
2019-01-18T15:14:30.327Z,101262.05
2019-01-18T15:17:00.481Z,101262.41
2019-01-18T15:19:30.677Z,101265.98
2019-01-18T15:22:00.928Z,101260.67
2019-01-18T15:24:31.011Z,101265.09
2019-01-18T15:27:00.932Z,101263.39
2019-01-18T15:29:31.238Z,101265.35
2019-01-18T15:32:01.273Z,101264.52
2019-01-18T15:34:31.299Z,101269.97
2019-01-18T15:37:01.746Z,101269.68
2019-01-18T15:39:31.961Z,101267.30
2019-01-18T15:42:02.066Z,101279.22
2019-01-18T15:44:32.323Z,101276.84
2019-01-18T15:47:02.528Z,101279.56
2019-01-18T15:49:32.614Z,101278.09
2019-01-18T15:52:02.428Z,101278.27
2019-01-18T15:54:32.658Z,101271.55
2019-01-18T15:57:03.085Z,101276.31
2019-01-18T15:59:33.188Z,101275.67
2019-01-18T16:02:02.884Z,101274.94
2019-01-18T16:04:32.826Z,101279.58
2019-01-18T16:07:02.546Z,101282.52
2019-01-18T16:09:32.801Z,101286.05
2019-01-18T16:12:03.197Z,101289.08
2019-01-18T16:14:33.400Z,101280.83
2019-01-18T16:17:03.389Z,101282.69
2019-01-18T16:19:33.777Z,101289.62
2019-01-18T16:22:03.380Z,101280.91
2019-01-18T16:24:33.309Z,101284.48
2019-01-18T16:27:03.475Z,101285.91
2019-01-18T16:29:33.312Z,101288.80
2019-01-18T16:32:03.192Z,101285.36
2019-01-18T16:34:33.119Z,101287.68
2019-01-18T16:37:03.346Z,101283.58
2019-01-18T16:39:33.484Z,101287.86
2019-01-18T16:42:03.585Z,101285.59
2019-01-18T16:44:33.130Z,101282.69
2019-01-18T16:47:03.707Z,101276.44
2019-01-18T16:49:33.823Z,101277.89
2019-01-18T16:52:03.846Z,101274.22
2019-01-18T16:54:34.101Z,101285.73
2019-01-18T16:57:04.437Z,101282.45
2019-01-18T16:59:34.712Z,101276.75
2019-01-18T17:02:04.762Z,101278.89
2019-01-18T17:04:35.543Z,101283.86
2019-01-18T17:07:05.914Z,101285.44
2019-01-18T17:09:35.801Z,101279.83
2019-01-18T17:12:05.773Z,101278.63
2019-01-18T17:14:35.389Z,101275.80
2019-01-18T17:17:05.560Z,101275.91
2019-01-18T17:19:35.458Z,101282.08
2019-01-18T17:22:05.929Z,101276.75
2019-01-18T17:24:36.168Z,101283.28
2019-01-18T17:27:06.036Z,101283.55
2019-01-18T17:29:36.709Z,101284.48
2019-01-18T17:32:06.845Z,101279.41
2019-01-18T17:34:36.702Z,101277.56
2019-01-18T17:37:07.012Z,101280.06
2019-01-18T17:39:37.160Z,101278.63
2019-01-18T17:42:07.223Z,101276.54
2019-01-18T17:44:37.063Z,101273.09
2019-01-18T17:47:06.997Z,101269.00
2019-01-18T17:49:37.005Z,101273.55
2019-01-18T17:52:06.801Z,101271.66
2019-01-18T17:54:36.957Z,101277.56
2019-01-18T17:57:07.252Z,101279.00
2019-01-18T17:59:37.636Z,101276.61
2019-01-18T18:02:07.631Z,101278.66
2019-01-18T18:04:37.464Z,101270.83
2019-01-18T18:07:07.937Z,101270.61
2019-01-18T18:09:37.971Z,101266.75
2019-01-18T18:12:08.419Z,101269.61
2019-01-18T18:14:38.110Z,101269.67
2019-01-18T18:17:08.196Z,101268.37
2019-01-18T18:19:38.646Z,101270.83
2019-01-18T18:22:08.748Z,101268.73
2019-01-18T18:24:38.559Z,101267.59
2019-01-18T18:27:08.587Z,101265.06
2019-01-18T18:29:38.697Z,101269.30
2019-01-18T18:32:08.600Z,101276.45
2019-01-18T18:34:40.491Z,101274.99
2019-01-18T18:37:11.062Z,101280.41
2019-01-18T18:39:41.120Z,101278.73
2019-01-18T18:42:11.248Z,101278.63
2019-01-18T18:44:40.768Z,101279.09
2019-01-18T18:47:11.081Z,101283.02
2019-01-18T18:49:41.184Z,101273.87
2019-01-18T18:52:10.863Z,101284.02
2019-01-18T18:54:40.962Z,101283.64
2019-01-18T18:57:10.931Z,101284.76
2019-01-18T18:59:40.739Z,101282.48
2019-01-18T19:02:10.542Z,101284.32
2019-01-18T19:04:40.378Z,101279.95
2019-01-18T19:07:09.999Z,101282.10
2019-01-18T19:09:40.193Z,101285.27
2019-01-18T19:12:09.898Z,101281.73
2019-01-18T19:14:39.743Z,101284.67
2019-01-18T19:17:09.840Z,101283.37
2019-01-18T19:19:39.426Z,101281.88
2019-01-18T19:22:09.937Z,101280.11
2019-01-18T19:24:40.325Z,101286.11
2019-01-18T19:27:10.300Z,101289.84
2019-01-18T19:29:40.239Z,101282.72
2019-01-18T19:32:10.242Z,101288.34
2019-01-18T19:34:40.778Z,101280.67
2019-01-18T19:37:11.089Z,101282.86
2019-01-18T19:39:41.013Z,101280.06
2019-01-18T19:42:10.814Z,101276.58
2019-01-18T19:44:41.002Z,101282.97
2019-01-18T19:47:11.216Z,101285.20
2019-01-18T19:49:41.174Z,101282.78
2019-01-18T19:52:11.211Z,101274.25
2019-01-18T19:54:41.309Z,101278.16
2019-01-18T19:57:11.918Z,101272.80
2019-01-18T19:59:42.462Z,101271.73
2019-01-18T20:02:12.626Z,101279.14
2019-01-18T20:04:43.018Z,101277.05
2019-01-18T20:07:13.204Z,101277.98
2019-01-18T20:09:43.107Z,101279.98
2019-01-18T20:12:13.233Z,101280.86
2019-01-18T20:14:43.529Z,101272.28
2019-01-18T20:17:13.468Z,101278.16
2019-01-18T20:19:43.320Z,101269.81
2019-01-18T20:22:13.326Z,101272.19
2019-01-18T20:24:43.288Z,101264.41
2019-01-18T20:27:12.919Z,101258.92
2019-01-18T20:29:42.790Z,101264.22
2019-01-18T20:32:13.162Z,101258.54
2019-01-18T20:34:43.551Z,101257.01
2019-01-18T20:37:13.653Z,101256.08
2019-01-18T20:39:43.661Z,101252.36
2019-01-18T20:42:13.672Z,101250.83
2019-01-18T20:44:43.604Z,101256.12
2019-01-18T20:47:13.722Z,101259.95
2019-01-18T20:49:44.459Z,101258.36
2019-01-18T20:52:14.262Z,101256.77
2019-01-18T20:54:44.533Z,101262.78
2019-01-18T20:57:14.549Z,101257.47
2019-01-18T20:59:45.298Z,101252.62
2019-01-18T21:02:15.735Z,101252.30
2019-01-18T21:04:45.696Z,101250.77
2019-01-18T21:07:15.798Z,101249.98
2019-01-18T21:09:46.004Z,101247.18
2019-01-18T21:12:15.909Z,101253.79
2019-01-18T21:14:45.977Z,101255.09
2019-01-18T21:17:15.650Z,101258.08
2019-01-18T21:19:45.621Z,101248.72
2019-01-18T21:22:15.800Z,101252.62
2019-01-18T21:24:45.996Z,101255.15
2019-01-18T21:27:16.388Z,101258.86
2019-01-18T21:29:46.269Z,101257.56
2019-01-18T21:32:16.376Z,101257.97
2019-01-18T21:34:46.424Z,101259.27
2019-01-18T21:37:16.400Z,101250.66
2019-01-18T21:39:46.939Z,101263.56
2019-01-18T21:42:17.386Z,101255.19
2019-01-18T21:44:47.514Z,101264.08
2019-01-18T21:47:17.598Z,101259.84
2019-01-18T21:49:47.777Z,101256.31
2019-01-18T21:52:17.661Z,101258.92
2019-01-18T21:54:47.425Z,101257.70
2019-01-18T21:57:17.026Z,101252.95
2019-01-18T21:59:46.989Z,101258.63
2019-01-18T22:02:16.457Z,101260.69
2019-01-18T22:04:46.474Z,101258.77
2019-01-18T22:07:16.788Z,101252.80
2019-01-18T22:09:46.322Z,101249.00
2019-01-18T22:12:16.547Z,101245.61
2019-01-18T22:14:46.904Z,101247.23
2019-01-18T22:17:16.756Z,101238.70
2019-01-18T22:19:47.186Z,101237.72
2019-01-18T22:22:17.637Z,101244.06
2019-01-18T22:24:47.696Z,101254.67
2019-01-18T22:27:17.776Z,101255.93
2019-01-18T22:29:47.767Z,101262.52
2019-01-18T22:32:17.889Z,101260.36
2019-01-18T22:34:48.141Z,101256.69
2019-01-18T22:37:18.234Z,101259.30
2019-01-18T22:39:48.154Z,101266.13
2019-01-18T22:42:18.358Z,101265.12
2019-01-18T22:44:48.403Z,101271.49
2019-01-18T22:47:18.714Z,101272.66
2019-01-18T22:49:48.701Z,101273.59
2019-01-18T22:52:18.717Z,101273.09
2019-01-18T22:54:48.640Z,101286.97
2019-01-18T22:57:18.806Z,101289.62
2019-01-18T22:59:49.179Z,101291.13
2019-01-18T23:02:19.422Z,101289.89
2019-01-18T23:04:55.233Z,101286.50
2019-01-18T23:07:19.730Z,101292.22
2019-01-18T23:09:49.797Z,101293.61
2019-01-18T23:12:19.529Z,101299.08
2019-01-18T23:14:49.288Z,101303.77
2019-01-18T23:17:19.797Z,101299.33
2019-01-18T23:19:50.432Z,101302.47
2019-01-18T23:22:20.801Z,101302.67
2019-01-18T23:24:50.914Z,101302.38
2019-01-18T23:27:20.990Z,101305.73
2019-01-18T23:29:50.671Z,101308.20
2019-01-18T23:32:20.914Z,101320.47
2019-01-18T23:34:51.082Z,101320.00
2019-01-18T23:37:21.435Z,101326.14
2019-01-18T23:39:51.592Z,101327.95
2019-01-18T23:42:21.412Z,101334.63
2019-01-18T23:44:51.119Z,101339.38
2019-01-18T23:47:21.013Z,101342.83
2019-01-18T23:49:51.088Z,101351.66
2019-01-18T23:52:21.111Z,101352.95
2019-01-18T23:54:51.202Z,101351.81
2019-01-18T23:57:20.954Z,101359.25
2019-01-18T23:59:51.230Z,101362.32
